Reid Restricted Landing Area

Jump to: basic info | weather | runways | comments

Related pages: nearby airports | nearby navaids | notams | map

Basic information (top)

Codes: 6IL6
Location: lon 42.118401, lat -88.407898, elev 920 ft / 280 m msl
Status: small_airport

Weather (top)

Current conditions for Dupage Airport 15nm (27km) SSE (rec'd 2014/10/25 07:20Z):

KDPA 250720Z 23005KT 10SM SCT014 12/09 A2990 RMK AO2 T01170089

Airport forecast for Dupage Airport 15nm (27km) SSE (rec'd 2014/10/25 06:54Z):

TAF COR KDPA 250551Z 2506/2606 23004KT 6SM BR BKN025 OVC035 
     FM250700 26004KT 2SM BR SCT007 BKN015 
      TEMPO 2509/2512 1/2SM FG BKN007 
     FM251500 30007KT P6SM FEW250 
     FM251900 30012G19KT P6SM SCT100 
     FM260000 29008KT P6SM FEW080

Runways (top)

E/W: 3,000 x 105 ft (914 x 32 m) — grass — not lighted

N/S: 2,100 x 105 ft (640 x 32 m) — grass — not lighted

Latest comments (top)

No comments yet for Reid Restricted Landing Area

More... (top)

See also NOTAMs and nearby airports and navaids, or visit the Reid Restricted Landing Area page at the main OurAirports website..